Terminal Aerodrome Forecast
Issued by NWS Upton, NY

Home | Current Version | Previous Version | Text Only | Print | Product List | Glossary On
Versions: 1 2 3 4 5 6 7 8 9 10 11 12 13 14 15 16 17 18 19 20 21 22 23 24 25 26 27 28
000
FTUS41 KOKX 012300
TAFEWR
TAF
KEWR 012335Z 0200/0306 18006KT P6SM FEW025 BKN120
     FM020600 11004KT P6SM SCT050 BKN120
     FM020900 05006KT 6SM -RA OVC050
     FM021200 05008KT 5SM RA BR SCT015 OVC025
     FM021900 08008KT P6SM BKN035
     FM030300 05005KT P6SM OVC040=

USA.gov is the U.S. government's official web portal to all federal, state and local government web resources and services.